createdAt,value
2022-11-28T00:01:43.340Z,6.70
2022-11-28T00:04:14.314Z,6.70
2022-11-28T00:06:46.182Z,6.70
2022-11-28T00:09:16.246Z,6.70
2022-11-28T00:11:46.327Z,6.70
2022-11-28T00:14:15.569Z,6.70
2022-11-28T00:16:44.251Z,6.70
2022-11-28T00:19:14.957Z,6.70
2022-11-28T00:21:43.793Z,6.70
2022-11-28T00:24:12.413Z,6.70
2022-11-28T00:26:42.432Z,6.70
2022-11-28T00:29:11.780Z,6.70
2022-11-28T00:31:43.879Z,6.70
2022-11-28T00:34:16.073Z,6.70
2022-11-28T00:36:46.110Z,6.80
2022-11-28T00:39:15.743Z,6.70
2022-11-28T00:41:45.518Z,6.80
2022-11-28T00:44:14.529Z,6.70
2022-11-28T00:46:45.340Z,6.80
2022-11-28T00:49:15.436Z,6.70
2022-11-28T00:51:44.110Z,6.80
2022-11-28T00:54:12.851Z,6.80
2022-11-28T00:56:41.998Z,6.80
2022-11-28T00:59:11.009Z,6.80
2022-11-28T01:01:41.793Z,6.80
2022-11-28T01:04:12.806Z,6.80
2022-11-28T01:06:44.559Z,6.80
2022-11-28T01:09:15.379Z,6.80
2022-11-28T01:11:45.234Z,6.80
2022-11-28T01:14:14.942Z,6.80
2022-11-28T01:16:43.833Z,6.80
2022-11-28T01:19:15.345Z,6.80
2022-11-28T01:21:45.494Z,6.80
2022-11-28T01:24:16.982Z,6.80
2022-11-28T01:26:46.052Z,6.80
2022-11-28T01:29:17.757Z,6.80
2022-11-28T01:31:46.448Z,6.80
2022-11-28T01:34:15.405Z,6.80
2022-11-28T01:36:47.997Z,6.90
2022-11-28T01:39:19.388Z,6.80
2022-11-28T01:41:48.039Z,6.90
2022-11-28T01:44:53.883Z,6.90
2022-11-28T01:47:26.758Z,6.90
2022-11-28T01:49:56.202Z,6.90
2022-11-28T01:52:26.300Z,6.90
2022-11-28T01:54:59.217Z,6.90
2022-11-28T01:57:30.510Z,6.90
2022-11-28T02:00:03.638Z,6.90
2022-11-28T02:02:37.673Z,6.90
2022-11-28T02:05:07.191Z,6.90
2022-11-28T02:07:38.568Z,6.90
2022-11-28T02:10:10.238Z,6.90
2022-11-28T02:13:00.671Z,6.90
2022-11-28T02:15:47.501Z,6.90
2022-11-28T02:18:50.180Z,6.90
2022-11-28T02:21:39.226Z,7.00
2022-11-28T02:24:45.382Z,7.00
2022-11-28T02:27:26.325Z,7.00
2022-11-28T02:30:10.186Z,7.00
2022-11-28T02:32:57.997Z,7.00
2022-11-28T02:35:40.918Z,7.00
2022-11-28T02:38:31.179Z,7.00
2022-11-28T02:41:14.132Z,7.00
2022-11-28T02:43:53.889Z,7.10
2022-11-28T02:46:31.608Z,7.10
2022-11-28T02:49:07.527Z,7.10
2022-11-28T02:51:51.457Z,7.10
2022-11-28T02:54:23.077Z,7.10
2022-11-28T02:56:53.902Z,7.10
2022-11-28T02:59:45.958Z,7.20
2022-11-28T03:02:19.160Z,7.20
2022-11-28T03:04:59.523Z,7.20
2022-11-28T03:07:47.674Z,7.20
2022-11-28T03:10:30.671Z,7.30
2022-11-28T03:13:12.134Z,7.30
2022-11-28T03:15:51.594Z,7.30
2022-11-28T03:18:28.847Z,7.30
2022-11-28T03:21:05.948Z,7.40
2022-11-28T03:23:40.377Z,7.40
2022-11-28T03:26:16.839Z,7.30
2022-11-28T03:28:53.797Z,7.40
2022-11-28T03:31:35.801Z,7.40
2022-11-28T03:34:09.237Z,7.40
2022-11-28T03:36:45.165Z,7.40
2022-11-28T03:39:24.847Z,7.40
2022-11-28T03:42:01.014Z,7.40
2022-11-28T03:44:33.773Z,7.40
2022-11-28T03:47:06.047Z,7.40
2022-11-28T03:49:42.645Z,7.40
2022-11-28T03:52:26.901Z,7.40
2022-11-28T03:55:03.002Z,7.40
2022-11-28T03:57:37.608Z,7.40
2022-11-28T04:00:09.259Z,7.40
2022-11-28T04:02:47.686Z,7.40
2022-11-28T04:05:24.660Z,7.40
2022-11-28T04:08:00.252Z,7.50
2022-11-28T04:10:39.259Z,7.50
2022-11-28T04:13:23.622Z,7.50
2022-11-28T04:15:58.570Z,7.50
2022-11-28T04:18:31.232Z,7.50
2022-11-28T04:21:05.059Z,7.50
2022-11-28T04:23:41.913Z,7.50
2022-11-28T04:26:16.501Z,7.50
2022-11-28T04:28:48.007Z,7.50
2022-11-28T04:31:19.090Z,7.50
2022-11-28T04:33:52.879Z,7.50
2022-11-28T04:36:26.109Z,7.50
2022-11-28T04:38:59.435Z,7.50
2022-11-28T04:41:34.262Z,7.50
2022-11-28T04:44:14.567Z,7.50
2022-11-28T04:46:50.263Z,7.60
2022-11-28T04:49:26.163Z,7.50
2022-11-28T04:52:05.944Z,7.60
2022-11-28T04:54:43.249Z,7.50
2022-11-28T04:57:21.542Z,7.50
2022-11-28T04:59:57.969Z,7.60
2022-11-28T05:02:28.719Z,7.60
2022-11-28T05:04:58.484Z,7.50
2022-11-28T05:07:32.355Z,7.50
2022-11-28T05:10:05.509Z,7.50
2022-11-28T05:12:36.548Z,7.50
2022-11-28T05:15:06.386Z,7.50
2022-11-28T05:17:40.518Z,7.50
2022-11-28T05:20:19.185Z,7.50
2022-11-28T05:22:50.811Z,7.50
2022-11-28T05:25:21.180Z,7.50
2022-11-28T05:27:55.457Z,7.50
2022-11-28T05:30:24.921Z,7.60
2022-11-28T05:32:54.296Z,7.60
2022-11-28T05:35:23.558Z,7.50
2022-11-28T05:37:52.565Z,7.50
2022-11-28T05:40:24.270Z,7.60
2022-11-28T05:42:56.026Z,7.60
2022-11-28T05:45:26.765Z,7.60
2022-11-28T05:47:55.532Z,7.60
2022-11-28T05:50:27.240Z,7.60
2022-11-28T05:53:01.183Z,7.60
2022-11-28T05:55:31.352Z,7.60
2022-11-28T05:58:00.054Z,7.60
2022-11-28T06:00:32.897Z,7.60
2022-11-28T06:03:10.612Z,7.60
2022-11-28T06:05:45.186Z,7.60
2022-11-28T06:08:16.092Z,7.60
2022-11-28T06:10:46.513Z,7.60
2022-11-28T06:13:22.895Z,7.60
2022-11-28T06:15:54.957Z,7.60
2022-11-28T06:18:23.734Z,7.60
2022-11-28T06:20:58.229Z,7.60
2022-11-28T06:23:27.382Z,7.60
2022-11-28T06:25:58.184Z,7.60
2022-11-28T06:28:28.314Z,7.60
2022-11-28T06:30:57.743Z,7.60
2022-11-28T06:33:26.654Z,7.60
2022-11-28T06:36:07.809Z,7.60
2022-11-28T06:38:37.855Z,7.60
2022-11-28T06:41:12.382Z,7.60
2022-11-28T06:43:45.509Z,7.60
2022-11-28T06:46:16.423Z,7.60
2022-11-28T06:48:56.338Z,7.60
2022-11-28T06:51:27.559Z,7.70
2022-11-28T06:53:58.384Z,7.70
2022-11-28T06:56:35.362Z,7.70
2022-11-28T06:59:06.642Z,7.70
2022-11-28T07:01:37.543Z,7.70
2022-11-28T07:04:06.459Z,7.70
2022-11-28T07:06:42.404Z,7.70
2022-11-28T07:09:13.760Z,7.70
2022-11-28T07:11:45.414Z,7.70
2022-11-28T07:14:14.135Z,7.70
2022-11-28T07:16:43.738Z,7.70
2022-11-28T07:19:15.400Z,7.70
2022-11-28T07:21:47.487Z,7.70
2022-11-28T07:24:16.279Z,7.70
2022-11-28T07:26:48.131Z,7.70
2022-11-28T07:29:25.475Z,7.70
2022-11-28T07:31:55.970Z,7.70
2022-11-28T07:34:30.217Z,7.70
2022-11-28T07:37:00.311Z,7.70
2022-11-28T07:39:31.902Z,7.80
2022-11-28T07:42:02.616Z,7.80
2022-11-28T07:44:34.180Z,7.80
2022-11-28T07:47:07.638Z,7.80
2022-11-28T07:49:41.745Z,7.80
2022-11-28T07:52:11.361Z,7.80
2022-11-28T07:54:43.100Z,7.80
2022-11-28T07:57:13.693Z,7.80
2022-11-28T07:59:45.554Z,7.80
2022-11-28T08:02:19.088Z,7.80
2022-11-28T08:04:58.582Z,7.80
2022-11-28T08:07:28.552Z,7.80
2022-11-28T08:10:01.033Z,7.80
2022-11-28T08:12:31.731Z,7.80
2022-11-28T08:15:10.502Z,7.80
2022-11-28T08:17:39.506Z,7.90
2022-11-28T08:20:15.971Z,7.90
2022-11-28T08:22:47.607Z,7.80
2022-11-28T08:25:19.273Z,7.90
2022-11-28T08:27:55.014Z,7.90
2022-11-28T08:30:23.941Z,7.90
2022-11-28T08:33:00.768Z,7.90
2022-11-28T08:35:33.491Z,7.90
2022-11-28T08:38:07.901Z,7.90
2022-11-28T08:40:36.735Z,7.90
2022-11-28T08:43:10.344Z,7.90
2022-11-28T08:45:40.397Z,7.90
2022-11-28T08:48:11.901Z,8.00
2022-11-28T08:50:48.750Z,8.00
2022-11-28T08:53:19.361Z,8.00
2022-11-28T08:55:56.636Z,8.00
2022-11-28T08:58:34.401Z,8.00
2022-11-28T09:01:03.204Z,8.10
2022-11-28T09:03:32.239Z,8.00
2022-11-28T09:06:03.373Z,8.10
2022-11-28T09:08:33.645Z,8.10
2022-11-28T09:11:04.289Z,8.10
2022-11-28T09:13:38.136Z,8.10
2022-11-28T09:16:10.786Z,8.10
2022-11-28T09:18:41.785Z,8.20
2022-11-28T09:21:14.459Z,8.20
2022-11-28T09:23:46.749Z,8.20
2022-11-28T09:26:22.467Z,8.20
2022-11-28T09:28:58.875Z,8.20
2022-11-28T09:31:30.673Z,8.20
2022-11-28T09:34:04.258Z,8.20
2022-11-28T09:36:36.675Z,8.30
2022-11-28T09:39:05.743Z,8.20
2022-11-28T09:41:46.192Z,8.30
2022-11-28T09:44:37.325Z,8.30
2022-11-28T09:47:12.616Z,8.30
2022-11-28T09:49:47.714Z,8.40
2022-11-28T09:52:29.737Z,8.40
2022-11-28T09:55:15.753Z,8.40
2022-11-28T09:57:48.619Z,8.50
2022-11-28T10:00:25.623Z,8.50
2022-11-28T10:03:22.352Z,8.60
2022-11-28T10:06:05.264Z,8.60
2022-11-28T10:08:45.583Z,8.70
2022-11-28T10:11:33.451Z,8.70
2022-11-28T10:14:26.408Z,8.70
2022-11-28T10:17:11.398Z,8.80
2022-11-28T10:20:00.793Z,8.80
2022-11-28T10:22:50.350Z,8.80
2022-11-28T10:25:23.588Z,8.80
2022-11-28T10:27:54.537Z,8.90
2022-11-28T10:30:34.173Z,8.90
2022-11-28T10:33:11.297Z,8.90
2022-11-28T10:35:56.092Z,8.90
2022-11-28T10:38:28.571Z,8.90
2022-11-28T10:41:11.789Z,9.00
2022-11-28T10:43:46.864Z,9.00
2022-11-28T10:46:54.278Z,9.00
2022-11-28T10:49:43.442Z,9.00
2022-11-28T10:52:23.042Z,9.10
2022-11-28T10:55:07.616Z,9.10
2022-11-28T10:57:49.014Z,9.10
2022-11-28T11:00:19.620Z,9.00
2022-11-28T11:02:50.270Z,9.10
2022-11-28T11:05:22.197Z,9.00
2022-11-28T11:07:53.450Z,9.10
2022-11-28T11:10:26.637Z,9.10
2022-11-28T11:12:55.299Z,9.10
2022-11-28T11:15:31.291Z,9.20
2022-11-28T11:18:04.020Z,9.20
2022-11-28T11:20:40.135Z,9.20
2022-11-28T11:23:17.040Z,9.20
2022-11-28T11:25:54.579Z,9.20
2022-11-28T11:28:42.321Z,9.30
2022-11-28T11:31:25.908Z,9.30
2022-11-28T11:34:02.410Z,9.20
2022-11-28T11:36:34.269Z,9.20
2022-11-28T11:39:20.085Z,9.20
2022-11-28T11:41:50.848Z,9.20
2022-11-28T11:44:29.873Z,9.20
2022-11-28T11:47:00.746Z,9.20
2022-11-28T11:49:31.561Z,9.20
2022-11-28T11:52:05.045Z,9.20
2022-11-28T11:54:34.205Z,9.20
2022-11-28T11:57:31.434Z,9.10
2022-11-28T11:59:55.290Z,9.10
2022-11-28T12:02:29.765Z,9.10
2022-11-28T12:05:04.414Z,9.10
2022-11-28T12:07:42.963Z,9.10
2022-11-28T12:10:16.685Z,9.10
2022-11-28T12:12:45.422Z,9.10
2022-11-28T12:15:18.633Z,9.10
2022-11-28T12:18:01.662Z,9.10
2022-11-28T12:21:02.852Z,9.10
2022-11-28T12:23:55.611Z,9.10
2022-11-28T12:26:31.912Z,9.10
2022-11-28T12:29:13.115Z,9.10
2022-11-28T12:31:52.806Z,9.10
2022-11-28T12:34:31.899Z,9.10
2022-11-28T12:37:11.132Z,9.10
2022-11-28T12:39:52.966Z,9.10
2022-11-28T12:42:42.348Z,9.10
2022-11-28T12:45:33.826Z,9.10
2022-11-28T12:48:14.086Z,9.20
2022-11-28T12:50:46.628Z,9.20
2022-11-28T12:53:49.697Z,9.20
2022-11-28T12:56:32.259Z,9.20
2022-11-28T12:59:05.969Z,9.20
2022-11-28T13:01:49.331Z,9.10
2022-11-28T13:04:35.560Z,9.10
2022-11-28T13:07:13.911Z,9.10
2022-11-28T13:09:54.687Z,9.20
2022-11-28T13:12:30.709Z,9.10
2022-11-28T13:15:04.405Z,9.10
2022-11-28T13:17:42.817Z,9.10
2022-11-28T13:20:21.988Z,9.10
2022-11-28T13:23:05.153Z,9.10
2022-11-28T13:25:42.500Z,9.20
2022-11-28T13:28:18.956Z,9.20
2022-11-28T13:30:52.264Z,9.20
2022-11-28T13:33:38.880Z,9.10
2022-11-28T13:38:34.901Z,9.20
2022-11-28T13:39:12.886Z,9.20
2022-11-28T13:44:45.930Z,9.30
2022-11-28T13:47:16.534Z,9.40
2022-11-28T13:49:45.156Z,9.40
2022-11-28T13:52:33.004Z,9.40
2022-11-28T13:55:01.680Z,9.40
2022-11-28T13:57:37.618Z,9.40
2022-11-28T14:00:22.907Z,9.40
2022-11-28T14:02:54.176Z,9.40
2022-11-28T14:05:35.856Z,9.40
2022-11-28T14:08:05.726Z,9.30
2022-11-28T14:10:47.673Z,9.30
2022-11-28T14:13:34.445Z,9.30
2022-11-28T14:16:17.717Z,9.30
2022-11-28T14:19:15.832Z,9.30
2022-11-28T14:21:55.758Z,9.30
2022-11-28T14:24:37.163Z,9.30
2022-11-28T14:27:07.912Z,9.30
2022-11-28T14:29:41.547Z,9.30
2022-11-28T14:32:31.039Z,9.20
2022-11-28T14:35:00.966Z,9.20
2022-11-28T14:37:57.703Z,9.20
2022-11-28T14:41:06.313Z,9.20
2022-11-28T14:43:37.378Z,9.20
2022-11-28T14:46:26.995Z,9.20
2022-11-28T14:49:27.186Z,9.20
2022-11-28T14:52:40.579Z,9.10
2022-11-28T14:55:22.329Z,9.10
2022-11-28T14:57:59.644Z,9.10
2022-11-28T15:00:31.503Z,9.10
2022-11-28T15:03:24.568Z,9.10
2022-11-28T15:05:59.354Z,9.10
2022-11-28T15:08:52.759Z,9.10
2022-11-28T15:11:42.571Z,9.10
2022-11-28T15:14:20.180Z,9.10
2022-11-28T15:16:51.279Z,9.10
2022-11-28T15:19:25.415Z,9.10
2022-11-28T15:21:56.684Z,9.10
2022-11-28T15:24:28.565Z,9.10
2022-11-28T15:26:58.977Z,9.10
2022-11-28T15:29:29.542Z,9.10
2022-11-28T15:31:59.336Z,9.10
2022-11-28T15:34:31.049Z,9.10
2022-11-28T15:37:02.606Z,9.10
2022-11-28T15:39:36.078Z,9.10
2022-11-28T15:42:06.770Z,9.10
2022-11-28T15:44:37.716Z,9.10
2022-11-28T15:47:07.109Z,9.10
2022-11-28T15:49:38.621Z,9.10
2022-11-28T15:52:08.581Z,9.10
2022-11-28T15:54:41.300Z,9.10
2022-11-28T15:57:20.466Z,9.10
2022-11-28T15:59:49.081Z,9.10
2022-11-28T16:02:23.634Z,9.10
2022-11-28T16:04:56.124Z,9.10
2022-11-28T16:07:26.180Z,9.10
2022-11-28T16:09:58.863Z,9.00
2022-11-28T16:12:28.714Z,9.10
2022-11-28T16:15:01.956Z,9.10
2022-11-28T16:17:33.315Z,9.10
2022-11-28T16:20:04.614Z,9.10
2022-11-28T16:22:37.516Z,9.10
2022-11-28T16:25:15.716Z,9.10
2022-11-28T16:27:48.734Z,9.10
2022-11-28T16:30:29.850Z,9.00
2022-11-28T16:32:58.837Z,9.10
2022-11-28T16:35:29.644Z,9.10
2022-11-28T16:38:17.451Z,9.10
2022-11-28T16:40:46.170Z,9.10
2022-11-28T16:43:24.927Z,9.10
2022-11-28T16:46:01.094Z,9.10
2022-11-28T16:48:31.963Z,9.10
2022-11-28T16:51:37.566Z,9.10
2022-11-28T16:54:32.003Z,9.10
2022-11-28T16:57:14.633Z,9.10
2022-11-28T16:59:44.510Z,9.10
2022-11-28T17:02:16.506Z,9.10
2022-11-28T17:04:45.582Z,9.10
2022-11-28T17:07:16.565Z,9.10
2022-11-28T17:09:48.656Z,9.10
2022-11-28T17:12:22.575Z,9.10
2022-11-28T17:14:51.255Z,9.10
2022-11-28T17:17:21.448Z,9.10
2022-11-28T17:19:50.350Z,9.10
2022-11-28T17:22:22.178Z,9.10
2022-11-28T17:24:54.397Z,9.10
2022-11-28T17:27:22.973Z,9.10
2022-11-28T17:29:52.085Z,9.10
2022-11-28T17:32:20.853Z,9.10
2022-11-28T17:34:49.571Z,9.10
2022-11-28T17:37:18.137Z,9.10
2022-11-28T17:40:00.611Z,9.10
2022-11-28T17:42:30.632Z,9.10
2022-11-28T17:44:59.360Z,9.10
2022-11-28T17:47:27.972Z,9.10
2022-11-28T17:49:56.645Z,9.10
2022-11-28T17:52:30.185Z,9.10
2022-11-28T17:55:07.095Z,9.10
2022-11-28T17:57:37.629Z,9.10
2022-11-28T18:00:08.907Z,9.10
2022-11-28T18:02:37.587Z,9.10
2022-11-28T18:05:06.888Z,9.10
2022-11-28T18:07:35.535Z,9.10
2022-11-28T18:10:04.484Z,9.10
2022-11-28T18:12:33.590Z,9.10
2022-11-28T18:15:03.704Z,9.10
2022-11-28T18:17:34.984Z,9.10
2022-11-28T18:20:05.153Z,9.10
2022-11-28T18:22:36.407Z,9.10
2022-11-28T18:25:05.482Z,9.10
2022-11-28T18:27:34.207Z,9.10
2022-11-28T18:30:04.699Z,9.10
2022-11-28T18:32:33.968Z,9.10
2022-11-28T18:35:02.626Z,9.10
2022-11-28T18:37:32.538Z,9.10
2022-11-28T18:40:05.084Z,9.10
2022-11-28T18:42:36.529Z,9.10
2022-11-28T18:45:07.649Z,9.10
2022-11-28T18:47:38.944Z,9.20
2022-11-28T18:50:09.221Z,9.10
2022-11-28T18:52:37.895Z,9.20
2022-11-28T18:55:07.977Z,9.20
2022-11-28T18:57:37.504Z,9.20
2022-11-28T19:00:09.247Z,9.20
2022-11-28T19:02:38.049Z,9.20
2022-11-28T19:05:07.720Z,9.10
2022-11-28T19:07:37.622Z,9.10
2022-11-28T19:10:07.274Z,9.00
2022-11-28T19:12:35.899Z,9.00
2022-11-28T19:15:08.580Z,8.90
2022-11-28T19:17:37.396Z,8.80
2022-11-28T19:20:07.230Z,8.70
2022-11-28T19:22:36.706Z,8.70
2022-11-28T19:25:08.353Z,8.60
2022-11-28T19:27:37.079Z,8.60
2022-11-28T19:30:08.300Z,8.50
2022-11-28T19:32:38.756Z,8.40
2022-11-28T19:35:08.420Z,8.30
2022-11-28T19:37:37.102Z,8.20
2022-11-28T19:40:06.793Z,8.30
2022-11-28T19:42:35.488Z,8.20
2022-11-28T19:45:04.173Z,8.20
2022-11-28T19:47:34.257Z,8.00
2022-11-28T19:50:02.875Z,8.00
2022-11-28T19:52:31.630Z,7.90
2022-11-28T19:55:00.301Z,7.90
2022-11-28T19:57:28.993Z,7.80
2022-11-28T20:00:00.232Z,7.80
2022-11-28T20:02:28.914Z,7.70
2022-11-28T20:04:58.946Z,7.70
2022-11-28T20:07:29.379Z,7.70
2022-11-28T20:09:58.115Z,7.60
2022-11-28T20:12:26.716Z,7.60
2022-11-28T20:14:55.338Z,7.60
2022-11-28T20:17:23.954Z,7.60
2022-11-28T20:19:52.551Z,7.50
2022-11-28T20:22:24.784Z,7.50
2022-11-28T20:24:53.469Z,7.50
2022-11-28T20:27:22.140Z,7.50
2022-11-28T20:29:52.374Z,7.60
2022-11-28T20:33:15.938Z,7.70
2022-11-28T20:35:44.610Z,7.80
2022-11-28T20:38:14.697Z,7.90
2022-11-28T20:40:46.094Z,8.00
2022-11-28T20:43:14.713Z,8.20
2022-11-28T20:45:43.824Z,8.30
2022-11-28T20:48:14.406Z,8.40
2022-11-28T20:50:44.660Z,8.40
2022-11-28T20:53:19.887Z,8.40
2022-11-28T20:56:00.474Z,8.40
2022-11-28T20:58:29.547Z,8.40
2022-11-28T21:00:58.327Z,8.40
2022-11-28T21:03:27.321Z,8.40
2022-11-28T21:06:00.825Z,8.40
2022-11-28T21:08:31.550Z,8.50
2022-11-28T21:11:00.164Z,8.50
2022-11-28T21:13:28.796Z,8.50
2022-11-28T21:15:58.508Z,8.50
2022-11-28T21:18:27.308Z,8.50
2022-11-28T21:20:55.958Z,8.50
2022-11-28T21:23:24.570Z,8.50
2022-11-28T21:25:54.539Z,8.50
2022-11-28T21:28:23.165Z,8.50
2022-11-28T21:30:51.880Z,8.50
2022-11-28T21:33:20.571Z,8.40
2022-11-28T21:35:49.223Z,8.50
2022-11-28T21:38:17.871Z,8.50
2022-11-28T21:40:54.853Z,8.50
2022-11-28T21:43:23.706Z,8.50
2022-11-28T21:45:52.676Z,8.40
2022-11-28T21:48:21.357Z,8.50
2022-11-28T21:50:50.972Z,8.50
2022-11-28T21:53:19.679Z,8.50
2022-11-28T21:55:48.276Z,8.50
2022-11-28T21:58:23.674Z,8.50
2022-11-28T22:00:58.652Z,8.40
2022-11-28T22:03:27.963Z,8.40
2022-11-28T22:06:01.838Z,8.40
2022-11-28T22:08:32.237Z,8.40
2022-11-28T22:11:04.838Z,8.30
2022-11-28T22:13:35.233Z,8.30
2022-11-28T22:16:09.834Z,8.30
2022-11-28T22:18:38.599Z,8.30
2022-11-28T22:21:22.553Z,8.30
2022-11-28T22:23:57.877Z,8.30
2022-11-28T22:26:26.606Z,8.30
2022-11-28T22:28:58.685Z,8.30
2022-11-28T22:31:27.513Z,8.30
2022-11-28T22:33:56.415Z,8.30
2022-11-28T22:36:25.485Z,8.30
2022-11-28T22:38:56.984Z,8.20
2022-11-28T22:41:29.317Z,8.20
2022-11-28T22:44:03.966Z,8.20
2022-11-28T22:46:33.532Z,8.20
2022-11-28T22:49:02.862Z,8.20
2022-11-28T22:51:32.700Z,8.20
2022-11-28T22:54:03.047Z,8.20
2022-11-28T22:56:33.219Z,8.20
2022-11-28T22:59:04.923Z,8.20
2022-11-28T23:01:35.145Z,8.20
2022-11-28T23:04:04.112Z,8.10
2022-11-28T23:06:35.321Z,8.10
2022-11-28T23:09:06.831Z,8.10
2022-11-28T23:11:38.849Z,8.10
2022-11-28T23:14:09.271Z,8.10
2022-11-28T23:16:39.789Z,8.10
2022-11-28T23:19:12.675Z,8.10
2022-11-28T23:21:44.682Z,8.10
2022-11-28T23:24:14.794Z,8.10
2022-11-28T23:26:46.888Z,8.10
2022-11-28T23:29:17.640Z,8.10
2022-11-28T23:31:47.695Z,8.10
2022-11-28T23:34:17.174Z,8.10
2022-11-28T23:36:47.781Z,8.10
2022-11-28T23:39:18.297Z,8.10
2022-11-28T23:41:47.987Z,8.10
2022-11-28T23:44:19.775Z,8.20
2022-11-28T23:46:49.324Z,8.10
2022-11-28T23:49:18.213Z,8.10
2022-11-28T23:51:47.070Z,8.10
2022-11-28T23:54:16.641Z,8.10
2022-11-28T23:56:46.391Z,8.10
2022-11-28T23:59:17.276Z,8.10
